sensor_id;sensor_type;location;lat;lon;timestamp;pressure;altitude;pressure_sealevel;temperature;humidity
31121;BME280;17770;45.966;13.632;2023-02-15T00:01:26;101973.75;;;14.75;59.41
31121;BME280;17770;45.966;13.632;2023-02-15T00:03:52;101978.94;;;14.75;59.50
31121;BME280;17770;45.966;13.632;2023-02-15T00:06:18;101965.09;;;14.75;59.52
31121;BME280;17770;45.966;13.632;2023-02-15T00:08:44;101972.03;;;14.74;59.41
31121;BME280;17770;45.966;13.632;2023-02-15T00:11:12;101970.28;;;14.75;59.43
31121;BME280;17770;45.966;13.632;2023-02-15T00:13:38;101969.44;;;14.74;59.09
31121;BME280;17770;45.966;13.632;2023-02-15T00:16:07;101976.38;;;14.74;59.27
31121;BME280;17770;45.966;13.632;2023-02-15T00:18:33;101978.97;;;14.74;59.57
31121;BME280;17770;45.966;13.632;2023-02-15T00:21:03;101981.59;;;14.72;59.17
31121;BME280;17770;45.966;13.632;2023-02-15T00:23:29;101974.69;;;14.71;59.62
31121;BME280;17770;45.966;13.632;2023-02-15T00:26:08;101978.13;;;14.72;59.31
31121;BME280;17770;45.966;13.632;2023-02-15T00:28:34;101975.56;;;14.70;59.28
31121;BME280;17770;45.966;13.632;2023-02-15T00:31:10;101972.16;;;14.68;59.36
31121;BME280;17770;45.966;13.632;2023-02-15T00:33:36;101972.16;;;14.68;59.07
31121;BME280;17770;45.966;13.632;2023-02-15T00:36:02;101960.91;;;14.69;59.22
31121;BME280;17770;45.966;13.632;2023-02-15T00:38:29;101959.16;;;14.68;59.23
31121;BME280;17770;45.966;13.632;2023-02-15T00:40:55;101957.47;;;14.67;59.60
31121;BME280;17770;45.966;13.632;2023-02-15T00:43:22;101952.31;;;14.66;59.24
31121;BME280;17770;45.966;13.632;2023-02-15T00:45:48;101954.00;;;14.67;59.20
31121;BME280;17770;45.966;13.632;2023-02-15T00:48:14;101956.59;;;14.67;59.01
31121;BME280;17770;45.966;13.632;2023-02-15T00:50:40;101948.84;;;14.65;59.32
31121;BME280;17770;45.966;13.632;2023-02-15T00:53:06;101944.56;;;14.64;59.23
31121;BME280;17770;45.966;13.632;2023-02-15T00:55:32;101947.16;;;14.63;59.61
31121;BME280;17770;45.966;13.632;2023-02-15T00:57:58;101949.75;;;14.63;59.57
31121;BME280;17770;45.966;13.632;2023-02-15T01:00:24;101943.72;;;14.62;59.40
31121;BME280;17770;45.966;13.632;2023-02-15T01:02:50;101940.22;;;14.63;59.37
31121;BME280;17770;45.966;13.632;2023-02-15T01:05:16;101938.53;;;14.62;59.09
31121;BME280;17770;45.966;13.632;2023-02-15T01:07:42;101938.53;;;14.62;59.28
31121;BME280;17770;45.966;13.632;2023-02-15T01:10:08;101931.59;;;14.61;59.19
31121;BME280;17770;45.966;13.632;2023-02-15T01:12:34;101929.00;;;14.61;59.46
31121;BME280;17770;45.966;13.632;2023-02-15T01:15:00;101929.03;;;14.60;59.09
31121;BME280;17770;45.966;13.632;2023-02-15T01:17:26;101922.16;;;14.59;59.46
31121;BME280;17770;45.966;13.632;2023-02-15T01:19:52;101921.25;;;14.60;59.26
31121;BME280;17770;45.966;13.632;2023-02-15T01:22:18;101917.84;;;14.59;59.25
31121;BME280;17770;45.966;13.632;2023-02-15T01:24:44;101916.09;;;14.58;59.04
31121;BME280;17770;45.966;13.632;2023-02-15T01:27:10;101915.28;;;14.58;59.34
31121;BME280;17770;45.966;13.632;2023-02-15T01:29:36;101916.13;;;14.57;59.01
31121;BME280;17770;45.966;13.632;2023-02-15T01:32:02;101914.44;;;14.56;59.22
31121;BME280;17770;45.966;13.632;2023-02-15T01:34:29;101915.28;;;14.56;59.36
31121;BME280;17770;45.966;13.632;2023-02-15T01:36:56;101911.00;;;14.54;59.07
31121;BME280;17770;45.966;13.632;2023-02-15T01:39:22;101909.28;;;14.54;59.31
31121;BME280;17770;45.966;13.632;2023-02-15T01:41:49;101906.69;;;14.54;59.15
31121;BME280;17770;45.966;13.632;2023-02-15T01:44:40;101897.16;;;14.53;59.25
31121;BME280;17770;45.966;13.632;2023-02-15T01:47:07;101897.16;;;14.53;59.38
31121;BME280;17770;45.966;13.632;2023-02-15T01:49:34;101880.75;;;14.53;59.12
31121;BME280;17770;45.966;13.632;2023-02-15T01:52:00;101885.94;;;14.53;59.25
31121;BME280;17770;45.966;13.632;2023-02-15T01:54:31;101885.94;;;14.51;59.02
31121;BME280;17770;45.966;13.632;2023-02-15T01:56:59;101878.19;;;14.50;59.11
31121;BME280;17770;45.966;13.632;2023-02-15T01:59:29;101878.19;;;14.50;59.12
31121;BME280;17770;45.966;13.632;2023-02-15T02:01:57;101880.78;;;14.50;59.11
31121;BME280;17770;45.966;13.632;2023-02-15T02:04:35;101875.59;;;14.50;59.21
31121;BME280;17770;45.966;13.632;2023-02-15T02:07:04;101880.78;;;14.50;58.94
31121;BME280;17770;45.966;13.632;2023-02-15T02:09:31;101868.72;;;14.49;58.93
31121;BME280;17770;45.966;13.632;2023-02-15T02:11:57;101871.31;;;14.49;59.07
31121;BME280;17770;45.966;13.632;2023-02-15T02:14:23;101874.81;;;14.48;58.81
31121;BME280;17770;45.966;13.632;2023-02-15T02:25:28;101879.22;;;14.44;59.04
31121;BME280;17770;45.966;13.632;2023-02-15T02:29:53;101876.56;;;14.46;58.95
31121;BME280;17770;45.966;13.632;2023-02-15T02:35:11;101874.00;;;14.44;59.03
31121;BME280;17770;45.966;13.632;2023-02-15T02:40:16;101882.66;;;14.43;59.01
31121;BME280;17770;45.966;13.632;2023-02-15T02:43:30;101872.31;;;14.42;59.41
31121;BME280;17770;45.966;13.632;2023-02-15T02:48:03;101876.69;;;14.41;59.03
31121;BME280;17770;45.966;13.632;2023-02-15T02:50:31;101884.47;;;14.41;59.05
31121;BME280;17770;45.966;13.632;2023-02-15T02:52:58;101880.16;;;14.40;58.88
31121;BME280;17770;45.966;13.632;2023-02-15T02:57:52;101864.56;;;14.40;59.01
31121;BME280;17770;45.966;13.632;2023-02-15T03:00:19;101862.00;;;14.38;58.92
31121;BME280;17770;45.966;13.632;2023-02-15T03:02:47;101861.16;;;14.38;58.63
31121;BME280;17770;45.966;13.632;2023-02-15T03:05:15;101857.72;;;14.38;58.98
31121;BME280;17770;45.966;13.632;2023-02-15T03:07:42;101859.44;;;14.37;59.28
31121;BME280;17770;45.966;13.632;2023-02-15T03:10:13;101859.44;;;14.37;58.92
31121;BME280;17770;45.966;13.632;2023-02-15T03:12:39;101859.44;;;14.37;58.83
31121;BME280;17770;45.966;13.632;2023-02-15T03:15:15;101852.56;;;14.36;58.84
31121;BME280;17770;45.966;13.632;2023-02-15T03:17:43;101851.69;;;14.35;58.88
31121;BME280;17770;45.966;13.632;2023-02-15T03:20:18;101845.66;;;14.35;58.95
31121;BME280;17770;45.966;13.632;2023-02-15T03:22:47;101855.16;;;14.34;58.81
31121;BME280;17770;45.966;13.632;2023-02-15T03:25:16;101854.34;;;14.34;59.02
31121;BME280;17770;45.966;13.632;2023-02-15T03:27:44;101854.34;;;14.34;58.94
31121;BME280;17770;45.966;13.632;2023-02-15T03:30:11;101851.78;;;14.32;58.82
31121;BME280;17770;45.966;13.632;2023-02-15T03:32:38;101852.59;;;14.33;59.22
31121;BME280;17770;45.966;13.632;2023-02-15T03:35:05;101847.41;;;14.33;58.71
31121;BME280;17770;45.966;13.632;2023-02-15T03:40:11;101842.25;;;14.31;59.37
31121;BME280;17770;45.966;13.632;2023-02-15T03:43:01;101847.44;;;14.31;58.89
31121;BME280;17770;45.966;13.632;2023-02-15T03:45:29;101846.63;;;14.31;58.85
31121;BME280;17770;45.966;13.632;2023-02-15T03:47:56;101844.88;;;14.30;59.03
31121;BME280;17770;45.966;13.632;2023-02-15T03:50:24;101845.78;;;14.29;59.05
31121;BME280;17770;45.966;13.632;2023-02-15T03:53:13;101846.66;;;14.29;58.79
31121;BME280;17770;45.966;13.632;2023-02-15T03:55:39;101852.72;;;14.28;58.66
31121;BME280;17770;45.966;13.632;2023-02-15T03:58:05;101857.03;;;14.28;58.76
31121;BME280;17770;45.966;13.632;2023-02-15T04:01:00;101864.81;;;14.28;58.73
31121;BME280;17770;45.966;13.632;2023-02-15T04:04:03;101854.47;;;14.26;58.57
31121;BME280;17770;45.966;13.632;2023-02-15T04:06:33;101861.41;;;14.26;58.77
31121;BME280;17770;45.966;13.632;2023-02-15T04:08:58;101854.47;;;14.26;58.67
31121;BME280;17770;45.966;13.632;2023-02-15T04:11:43;101856.22;;;14.26;58.96
31121;BME280;17770;45.966;13.632;2023-02-15T04:14:09;101857.09;;;14.25;58.77
31121;BME280;17770;45.966;13.632;2023-02-15T04:16:53;101841.53;;;14.25;58.89
31121;BME280;17770;45.966;13.632;2023-02-15T04:19:19;101838.06;;;14.24;58.98
31121;BME280;17770;45.966;13.632;2023-02-15T04:22:03;101841.53;;;14.23;58.73
31121;BME280;17770;45.966;13.632;2023-02-15T04:24:47;101838.06;;;14.23;58.69
31121;BME280;17770;45.966;13.632;2023-02-15T04:27:32;101838.06;;;14.23;58.81
31121;BME280;17770;45.966;13.632;2023-02-15T04:29:57;101839.84;;;14.22;58.69
31121;BME280;17770;45.966;13.632;2023-02-15T04:32:23;101847.63;;;14.22;58.92
31121;BME280;17770;45.966;13.632;2023-02-15T04:34:49;101845.03;;;14.22;58.96
31121;BME280;17770;45.966;13.632;2023-02-15T04:37:15;101854.53;;;14.22;58.92
31121;BME280;17770;45.966;13.632;2023-02-15T04:39:41;101852.84;;;14.21;58.99
31121;BME280;17770;45.966;13.632;2023-02-15T04:42:07;101855.44;;;14.21;58.73
31121;BME280;17770;45.966;13.632;2023-02-15T04:44:33;101850.28;;;14.19;58.89
31121;BME280;17770;45.966;13.632;2023-02-15T04:46:58;101847.69;;;14.19;58.89
31121;BME280;17770;45.966;13.632;2023-02-15T04:49:24;101841.63;;;14.19;58.85
31121;BME280;17770;45.966;13.632;2023-02-15T04:51:50;101848.53;;;14.20;58.79
31121;BME280;17770;45.966;13.632;2023-02-15T04:54:16;101855.50;;;14.18;58.83
31121;BME280;17770;45.966;13.632;2023-02-15T04:56:42;101839.94;;;14.16;58.79
31121;BME280;17770;45.966;13.632;2023-02-15T04:59:11;101845.13;;;14.16;58.95
31121;BME280;17770;45.966;13.632;2023-02-15T05:01:37;101847.72;;;14.18;58.26
31121;BME280;17770;45.966;13.632;2023-02-15T05:04:03;101849.50;;;14.16;58.93
31121;BME280;17770;45.966;13.632;2023-02-15T05:06:29;101845.13;;;14.16;58.82
31121;BME280;17770;45.966;13.632;2023-02-15T05:08:55;101833.91;;;14.16;58.65
31121;BME280;17770;45.966;13.632;2023-02-15T05:11:20;101829.59;;;14.15;58.59
31121;BME280;17770;45.966;13.632;2023-02-15T05:13:46;101847.75;;;14.15;58.57
31121;BME280;17770;45.966;13.632;2023-02-15T05:16:12;101841.75;;;14.14;58.57
31121;BME280;17770;45.966;13.632;2023-02-15T05:18:38;101839.19;;;14.13;58.63
31121;BME280;17770;45.966;13.632;2023-02-15T05:21:04;101841.78;;;14.13;58.71
31121;BME280;17770;45.966;13.632;2023-02-15T05:23:29;101846.06;;;14.14;58.51
31121;BME280;17770;45.966;13.632;2023-02-15T05:25:55;101847.78;;;14.13;58.51
31121;BME280;17770;45.966;13.632;2023-02-15T05:28:40;101836.59;;;14.13;58.74
31121;BME280;17770;45.966;13.632;2023-02-15T05:33:37;101838.34;;;14.11;58.79
31121;BME280;17770;45.966;13.632;2023-02-15T05:36:04;101849.56;;;14.11;58.73
31121;BME280;17770;45.966;13.632;2023-02-15T05:38:30;101851.31;;;14.11;58.58
31121;BME280;17770;45.966;13.632;2023-02-15T05:40:56;101850.44;;;14.10;58.80
31121;BME280;17770;45.966;13.632;2023-02-15T05:43:22;101853.09;;;14.09;58.30
31121;BME280;17770;45.966;13.632;2023-02-15T05:45:49;101849.63;;;14.08;58.61
31121;BME280;17770;45.966;13.632;2023-02-15T05:48:16;101843.59;;;14.08;58.80
31121;BME280;17770;45.966;13.632;2023-02-15T05:50:42;101849.63;;;14.08;58.70
31121;BME280;17770;45.966;13.632;2023-02-15T05:53:08;101858.31;;;14.07;58.45
31121;BME280;17770;45.966;13.632;2023-02-15T05:55:34;101860.91;;;14.07;58.93
31121;BME280;17770;45.966;13.632;2023-02-15T05:57:59;101855.72;;;14.07;58.46
31121;BME280;17770;45.966;13.632;2023-02-15T06:00:25;101857.44;;;14.07;58.49
31121;BME280;17770;45.966;13.632;2023-02-15T06:02:51;101864.38;;;14.06;58.45
31121;BME280;17770;45.966;13.632;2023-02-15T06:05:17;101864.38;;;14.06;58.83
31121;BME280;17770;45.966;13.632;2023-02-15T06:07:43;101858.34;;;14.06;58.09
31121;BME280;17770;45.966;13.632;2023-02-15T06:10:10;101860.94;;;14.06;58.88
31121;BME280;17770;45.966;13.632;2023-02-15T06:12:37;101864.38;;;14.06;58.86
31121;BME280;17770;45.966;13.632;2023-02-15T06:15:03;101866.97;;;14.05;58.48
31121;BME280;17770;45.966;13.632;2023-02-15T06:17:29;101874.75;;;14.05;58.57
31121;BME280;17770;45.966;13.632;2023-02-15T06:19:55;101869.56;;;14.05;58.74
31121;BME280;17770;45.966;13.632;2023-02-15T06:22:21;101873.94;;;14.04;58.93
31121;BME280;17770;45.966;13.632;2023-02-15T06:24:47;101879.97;;;14.03;58.97
31121;BME280;17770;45.966;13.632;2023-02-15T06:27:12;101880.00;;;14.02;58.64
31121;BME280;17770;45.966;13.632;2023-02-15T06:29:38;101882.59;;;14.02;58.74
31121;BME280;17770;45.966;13.632;2023-02-15T06:32:04;101879.97;;;14.03;58.71
31121;BME280;17770;45.966;13.632;2023-02-15T06:34:31;101881.78;;;14.01;58.69
31121;BME280;17770;45.966;13.632;2023-02-15T06:36:57;101885.19;;;14.02;58.63
31121;BME280;17770;45.966;13.632;2023-02-15T06:39:23;101882.63;;;14.00;59.00
31121;BME280;17770;45.966;13.632;2023-02-15T06:41:48;101893.00;;;14.00;58.82
31121;BME280;17770;45.966;13.632;2023-02-15T06:44:14;101895.59;;;14.00;58.46
31121;BME280;17770;45.966;13.632;2023-02-15T06:46:40;101891.28;;;14.01;58.74
31121;BME280;17770;45.966;13.632;2023-02-15T06:49:06;101887.81;;;14.00;58.79
31121;BME280;17770;45.966;13.632;2023-02-15T06:51:32;101885.25;;;14.00;58.76
31121;BME280;17770;45.966;13.632;2023-02-15T06:53:59;101888.72;;;13.99;58.94
31121;BME280;17770;45.966;13.632;2023-02-15T06:56:25;101892.16;;;14.00;58.86
31121;BME280;17770;45.966;13.632;2023-02-15T06:58:51;101893.06;;;13.99;59.15
31121;BME280;17770;45.966;13.632;2023-02-15T07:01:18;101891.34;;;13.98;58.43
31121;BME280;17770;45.966;13.632;2023-02-15T07:03:44;101892.19;;;13.98;58.53
31121;BME280;17770;45.966;13.632;2023-02-15T07:06:10;101892.19;;;13.98;58.57
31121;BME280;17770;45.966;13.632;2023-02-15T07:08:37;101895.63;;;13.99;58.66
31121;BME280;17770;45.966;13.632;2023-02-15T07:11:04;101887.84;;;13.99;58.69
31121;BME280;17770;45.966;13.632;2023-02-15T07:13:49;101883.56;;;13.98;58.41
31121;BME280;17770;45.966;13.632;2023-02-15T07:16:14;101881.81;;;13.98;58.52
31121;BME280;17770;45.966;13.632;2023-02-15T07:18:40;101887.00;;;13.98;58.82
31121;BME280;17770;45.966;13.632;2023-02-15T07:21:06;101886.16;;;13.98;58.72
31121;BME280;17770;45.966;13.632;2023-02-15T07:23:35;101875.78;;;13.98;58.58
31121;BME280;17770;45.966;13.632;2023-02-15T07:26:01;101887.91;;;13.97;58.26
31121;BME280;17770;45.966;13.632;2023-02-15T07:28:28;101895.69;;;13.97;58.60
31121;BME280;17770;45.966;13.632;2023-02-15T07:30:54;101889.63;;;13.97;58.50
31121;BME280;17770;45.966;13.632;2023-02-15T07:33:20;101885.34;;;13.96;58.39
31121;BME280;17770;45.966;13.632;2023-02-15T07:35:55;101882.69;;;13.97;58.92
31121;BME280;17770;45.966;13.632;2023-02-15T07:38:23;101887.91;;;13.97;58.36
31121;BME280;17770;45.966;13.632;2023-02-15T07:40:50;101883.59;;;13.96;58.48
31121;BME280;17770;45.966;13.632;2023-02-15T07:43:16;101882.69;;;13.97;58.31
31121;BME280;17770;45.966;13.632;2023-02-15T07:45:42;101882.69;;;13.97;58.43
31121;BME280;17770;45.966;13.632;2023-02-15T07:48:08;101887.91;;;13.97;58.54
31121;BME280;17770;45.966;13.632;2023-02-15T07:50:34;101887.94;;;13.96;58.26
31121;BME280;17770;45.966;13.632;2023-02-15T07:53:03;101884.44;;;13.97;58.62
31121;BME280;17770;45.966;13.632;2023-02-15T07:55:29;101885.34;;;13.96;58.15
31121;BME280;17770;45.966;13.632;2023-02-15T07:57:54;101888.78;;;13.96;58.25
31121;BME280;17770;45.966;13.632;2023-02-15T08:00:21;101891.34;;;13.98;58.63
31121;BME280;17770;45.966;13.632;2023-02-15T08:02:51;101897.41;;;13.97;58.22
31121;BME280;17770;45.966;13.632;2023-02-15T08:05:35;101891.38;;;13.96;58.24
31121;BME280;17770;45.966;13.632;2023-02-15T08:08:01;101877.59;;;13.94;58.31
31121;BME280;17770;45.966;13.632;2023-02-15T08:10:27;101888.78;;;13.95;58.76
31121;BME280;17770;45.966;13.632;2023-02-15T08:13:13;101893.13;;;13.94;58.47
31121;BME280;17770;45.966;13.632;2023-02-15T08:15:38;101891.38;;;13.95;58.83
31121;BME280;17770;45.966;13.632;2023-02-15T08:18:04;101888.78;;;13.95;58.55
31121;BME280;17770;45.966;13.632;2023-02-15T08:20:30;101893.13;;;13.96;58.41
31121;BME280;17770;45.966;13.632;2023-02-15T08:22:56;101882.78;;;13.94;58.23
31121;BME280;17770;45.966;13.632;2023-02-15T08:25:22;101880.19;;;13.94;58.80
31121;BME280;17770;45.966;13.632;2023-02-15T08:27:49;101871.50;;;13.95;58.29
31121;BME280;17770;45.966;13.632;2023-02-15T08:30:15;101881.88;;;13.95;58.77
31121;BME280;17770;45.966;13.632;2023-02-15T08:32:41;101875.00;;;13.94;58.68
31121;BME280;17770;45.966;13.632;2023-02-15T08:35:07;101870.63;;;13.96;58.46
31121;BME280;17770;45.966;13.632;2023-02-15T08:37:32;101877.56;;;13.96;58.21
31121;BME280;17770;45.966;13.632;2023-02-15T08:39:58;101874.97;;;13.96;58.67
31121;BME280;17770;45.966;13.632;2023-02-15T08:42:24;101881.03;;;13.93;58.85
31121;BME280;17770;45.966;13.632;2023-02-15T08:44:50;101877.56;;;13.96;58.55
31121;BME280;17770;45.966;13.632;2023-02-15T08:47:17;101876.69;;;13.95;58.51
31121;BME280;17770;45.966;13.632;2023-02-15T08:49:42;101876.69;;;13.95;58.53
31121;BME280;17770;45.966;13.632;2023-02-15T08:52:08;101875.81;;;13.95;58.70
31121;BME280;17770;45.966;13.632;2023-02-15T08:54:34;101875.81;;;13.95;58.58
31121;BME280;17770;45.966;13.632;2023-02-15T08:57:00;101871.50;;;13.95;58.65
31121;BME280;17770;45.966;13.632;2023-02-15T08:59:26;101869.78;;;13.96;58.53
31121;BME280;17770;45.966;13.632;2023-02-15T09:01:52;101876.69;;;13.95;58.85
31121;BME280;17770;45.966;13.632;2023-02-15T09:04:19;101870.63;;;13.95;58.83
31121;BME280;17770;45.966;13.632;2023-02-15T09:06:46;101877.59;;;13.94;58.66
31121;BME280;17770;45.966;13.632;2023-02-15T09:09:12;101871.50;;;13.95;58.47
31121;BME280;17770;45.966;13.632;2023-02-15T09:11:39;101874.09;;;13.95;58.73
31121;BME280;17770;45.966;13.632;2023-02-15T09:14:06;101884.44;;;13.97;58.67
31121;BME280;17770;45.966;13.632;2023-02-15T09:16:35;101872.38;;;13.96;58.29
31121;BME280;17770;45.966;13.632;2023-02-15T09:19:01;101873.22;;;13.96;58.70
31121;BME280;17770;45.966;13.632;2023-02-15T09:21:30;101865.44;;;13.96;58.40
31121;BME280;17770;45.966;13.632;2023-02-15T09:23:57;101868.91;;;13.95;58.78
31121;BME280;17770;45.966;13.632;2023-02-15T09:26:25;101868.94;;;13.94;58.32
31121;BME280;17770;45.966;13.632;2023-02-15T09:28:52;101876.69;;;13.95;58.59
31121;BME280;17770;45.966;13.632;2023-02-15T09:31:19;101873.22;;;13.96;58.57
31121;BME280;17770;45.966;13.632;2023-02-15T09:33:46;101868.88;;;13.97;58.38
31121;BME280;17770;45.966;13.632;2023-02-15T09:38:44;101872.38;;;13.96;58.81
31121;BME280;17770;45.966;13.632;2023-02-15T09:43:46;101873.22;;;13.96;58.35
31121;BME280;17770;45.966;13.632;2023-02-15T09:48:49;101862.84;;;13.96;59.00
31121;BME280;17770;45.966;13.632;2023-02-15T09:51:30;101864.59;;;13.96;58.72
31121;BME280;17770;45.966;13.632;2023-02-15T09:59:16;101855.06;;;13.96;59.19
31121;BME280;17770;45.966;13.632;2023-02-15T10:01:58;101854.22;;;13.96;58.84
31121;BME280;17770;45.966;13.632;2023-02-15T10:04:32;101849.00;;;13.97;58.56
31121;BME280;17770;45.966;13.632;2023-02-15T10:12:20;101852.47;;;13.96;59.30
31121;BME280;17770;45.966;13.632;2023-02-15T10:25:36;101845.50;;;13.98;59.09
31121;BME280;17770;45.966;13.632;2023-02-15T10:28:13;101837.78;;;13.95;59.42
31121;BME280;17770;45.966;13.632;2023-02-15T10:30:44;101841.25;;;13.96;59.43
31121;BME280;17770;45.966;13.632;2023-02-15T10:33:37;101842.94;;;13.97;59.43
31121;BME280;17770;45.966;13.632;2023-02-15T10:38:47;101839.47;;;13.98;59.52
31121;BME280;17770;45.966;13.632;2023-02-15T10:41:13;101831.72;;;13.96;59.73
31121;BME280;17770;45.966;13.632;2023-02-15T10:48:51;101830.81;;;13.99;59.54
31121;BME280;17770;45.966;13.632;2023-02-15T10:51:26;101829.06;;;13.99;59.88
31121;BME280;17770;45.966;13.632;2023-02-15T10:54:02;101822.13;;;14.00;59.83
31121;BME280;17770;45.966;13.632;2023-02-15T11:06:54;101809.94;;;14.03;59.69
31121;BME280;17770;45.966;13.632;2023-02-15T11:09:22;101803.94;;;14.03;59.58
31121;BME280;17770;45.966;13.632;2023-02-15T11:11:53;101801.31;;;14.04;59.94
31121;BME280;17770;45.966;13.632;2023-02-15T11:14:35;101804.72;;;14.05;60.09
31121;BME280;17770;45.966;13.632;2023-02-15T11:17:11;101796.94;;;14.05;60.13
31121;BME280;17770;45.966;13.632;2023-02-15T11:19:42;101787.44;;;14.05;60.22
31121;BME280;17770;45.966;13.632;2023-02-15T11:22:11;101788.31;;;14.06;60.08
31121;BME280;17770;45.966;13.632;2023-02-15T11:24:42;101788.31;;;14.06;60.31
31121;BME280;17770;45.966;13.632;2023-02-15T11:27:19;101777.88;;;14.07;60.35
31121;BME280;17770;45.966;13.632;2023-02-15T11:32:21;101778.72;;;14.09;60.20
31121;BME280;17770;45.966;13.632;2023-02-15T11:34:53;101778.72;;;14.09;60.25
31121;BME280;17770;45.966;13.632;2023-02-15T11:37:24;101775.22;;;14.10;60.69
31121;BME280;17770;45.966;13.632;2023-02-15T11:39:54;101775.19;;;14.12;60.92
31121;BME280;17770;45.966;13.632;2023-02-15T11:42:21;101772.56;;;14.13;60.85
31121;BME280;17770;45.966;13.632;2023-02-15T11:47:46;101762.16;;;14.15;60.88
31121;BME280;17770;45.966;13.632;2023-02-15T11:50:16;101764.75;;;14.15;61.00
31121;BME280;17770;45.966;13.632;2023-02-15T11:52:43;101763.00;;;14.15;60.82
31121;BME280;17770;45.966;13.632;2023-02-15T11:55:12;101762.09;;;14.16;60.94
31121;BME280;17770;45.966;13.632;2023-02-15T11:57:40;101756.91;;;14.18;61.27
31121;BME280;17770;45.966;13.632;2023-02-15T12:02:53;101752.53;;;14.20;61.47
31121;BME280;17770;45.966;13.632;2023-02-15T12:05:21;101748.19;;;14.20;61.69
31121;BME280;17770;45.966;13.632;2023-02-15T12:10:19;101745.53;;;14.23;61.73
31121;BME280;17770;45.966;13.632;2023-02-15T12:12:47;101747.25;;;14.24;61.42
31121;BME280;17770;45.966;13.632;2023-02-15T12:15:13;101742.91;;;14.26;61.81
31121;BME280;17770;45.966;13.632;2023-02-15T12:17:49;101736.84;;;14.27;61.70
31121;BME280;17770;45.966;13.632;2023-02-15T12:22:54;101731.63;;;14.29;62.07
31121;BME280;17770;45.966;13.632;2023-02-15T12:25:37;101726.38;;;14.30;62.11
31121;BME280;17770;45.966;13.632;2023-02-15T12:28:15;101727.22;;;14.32;62.42
31121;BME280;17770;45.966;13.632;2023-02-15T12:30:46;101722.84;;;14.33;62.11
31121;BME280;17770;45.966;13.632;2023-02-15T12:33:18;101725.41;;;14.34;62.74
31121;BME280;17770;45.966;13.632;2023-02-15T12:35:50;101718.44;;;14.36;62.33
31121;BME280;17770;45.966;13.632;2023-02-15T12:38:23;101721.00;;;14.38;62.98
31121;BME280;17770;45.966;13.632;2023-02-15T12:40:59;101717.53;;;14.39;63.38
31121;BME280;17770;45.966;13.632;2023-02-15T12:43:36;101713.19;;;14.41;63.01
31121;BME280;17770;45.966;13.632;2023-02-15T12:48:51;101704.44;;;14.44;62.83
31121;BME280;17770;45.966;13.632;2023-02-15T12:51:32;101698.34;;;14.46;62.93
31121;BME280;17770;45.966;13.632;2023-02-15T12:54:28;101691.34;;;14.48;63.98
31121;BME280;17770;45.966;13.632;2023-02-15T12:56:54;101691.31;;;14.50;64.07
31121;BME280;17770;45.966;13.632;2023-02-15T12:59:20;101686.91;;;14.53;64.18
31121;BME280;17770;45.966;13.632;2023-02-15T13:01:46;101681.66;;;14.55;64.92
31121;BME280;17770;45.966;13.632;2023-02-15T13:06:48;101675.53;;;14.59;65.35
31121;BME280;17770;45.966;13.632;2023-02-15T13:09:15;101678.91;;;14.62;65.65
31121;BME280;17770;45.966;13.632;2023-02-15T13:11:43;101676.28;;;14.64;66.37
31121;BME280;17770;45.966;13.632;2023-02-15T13:14:20;101665.84;;;14.65;66.42
31121;BME280;17770;45.966;13.632;2023-02-15T13:16:48;101666.66;;;14.67;66.38
31121;BME280;17770;45.966;13.632;2023-02-15T13:19:16;101663.13;;;14.70;65.98
31121;BME280;17770;45.966;13.632;2023-02-15T13:21:44;101661.34;;;14.72;62.99
31121;BME280;17770;45.966;13.632;2023-02-15T13:26:43;101657.78;;;14.76;62.88
31121;BME280;17770;45.966;13.632;2023-02-15T13:31:42;101656.81;;;14.80;61.24
31121;BME280;17770;45.966;13.632;2023-02-15T13:47:21;101653.81;;;14.95;63.17
31121;BME280;17770;45.966;13.632;2023-02-15T13:49:56;101649.44;;;14.97;63.99
31121;BME280;17770;45.966;13.632;2023-02-15T13:52:27;101651.06;;;14.99;63.42
31121;BME280;17770;45.966;13.632;2023-02-15T13:55:01;101657.94;;;15.02;63.91
31121;BME280;17770;45.966;13.632;2023-02-15T14:03:04;101634.34;;;15.09;64.57
31121;BME280;17770;45.966;13.632;2023-02-15T14:10:59;101640.13;;;15.19;63.00
31121;BME280;17770;45.966;13.632;2023-02-15T14:16:03;101640.06;;;15.22;64.00
31121;BME280;17770;45.966;13.632;2023-02-15T14:18:34;101646.03;;;15.25;64.92
31121;BME280;17770;45.966;13.632;2023-02-15T14:21:19;101653.78;;;15.27;62.98
31121;BME280;17770;45.966;13.632;2023-02-15T14:31:44;101646.59;;;15.36;63.77
31121;BME280;17770;45.966;13.632;2023-02-15T14:34:18;101649.13;;;15.38;64.74
31121;BME280;17770;45.966;13.632;2023-02-15T14:36:44;101649.06;;;15.41;64.17
31121;BME280;17770;45.966;13.632;2023-02-15T14:42:01;101656.69;;;15.47;64.84
31121;BME280;17770;45.966;13.632;2023-02-15T14:44:38;101653.16;;;15.49;65.21
31121;BME280;17770;45.966;13.632;2023-02-15T14:47:17;101653.13;;;15.51;65.21
31121;BME280;17770;45.966;13.632;2023-02-15T14:49:45;101651.34;;;15.53;64.70
31121;BME280;17770;45.966;13.632;2023-02-15T14:52:11;101655.56;;;15.55;63.83
31121;BME280;17770;45.966;13.632;2023-02-15T15:01:58;101650.97;;;15.65;66.34
31121;BME280;17770;45.966;13.632;2023-02-15T15:07:02;101649.13;;;15.68;66.64
31121;BME280;17770;45.966;13.632;2023-02-15T15:09:29;101651.66;;;15.70;65.46
31121;BME280;17770;45.966;13.632;2023-02-15T15:14:41;101649.84;;;15.74;65.59
31121;BME280;17770;45.966;13.632;2023-02-15T15:17:10;101655.84;;;15.76;66.65